Time;durP1;ratioP1;P1;durP2;ratioP2;P2;SDS_P1;SDS_P2;PMS_P1;PMS_P2;Temp;Humidity;BMP_temperature;BMP_pressure;BME280_temperature;BME280_humidity;BME280_pressure;Samples;Min_cycle;Max_cycle;Signal;HPM_P1;HPM_P2
2023/09/07 00:00:41;;;;;;;5.03;4.53;;;;;;;19.35;56.90;96564.03;4967842;28;20543;-70
2023/09/07 00:03:07;;;;;;;6.87;5.13;;;;;;;19.00;57.33;96557.75;4967747;28;20662;-70
2023/09/07 00:05:32;;;;;;;5.40;4.90;;;;;;;19.18;57.38;96563.50;4968161;28;20215;-70
2023/09/07 00:07:58;;;;;;;5.77;4.50;;;;;;;19.25;57.21;96566.53;4979552;28;20178;-70
2023/09/07 00:10:25;;;;;;;6.00;5.40;;;;;;;19.19;57.41;96557.22;4981072;28;20174;-70
2023/09/07 00:12:50;;;;;;;6.90;5.20;;;;;;;19.18;57.67;96565.31;4972659;28;20181;-70
2023/09/07 00:15:16;;;;;;;6.10;5.50;;;;;;;19.30;57.46;96564.38;4967244;28;20966;-70
2023/09/07 00:17:41;;;;;;;5.90;5.00;;;;;;;19.30;57.69;96556.41;4967820;28;20178;-70
2023/09/07 00:20:16;;;;;;;5.30;4.40;;;;;;;19.31;57.68;96557.25;4967784;28;20213;-70
2023/09/07 00:22:41;;;;;;;6.40;4.90;;;;;;;19.25;57.62;96558.53;4967357;28;20282;-69
2023/09/07 00:25:07;;;;;;;7.87;5.07;;;;;;;19.20;58.14;96553.56;4967226;28;20521;-69
2023/09/07 00:27:34;;;;;;;7.13;5.40;;;;;;;19.16;58.14;96551.28;4967441;28;20177;-70
2023/09/07 00:29:59;;;;;;;6.20;5.37;;;;;;;19.20;58.33;96552.72;4967459;28;20173;-70
2023/09/07 00:32:25;;;;;;;6.47;5.23;;;;;;;19.23;58.53;96555.19;4967484;28;20400;-70
2023/09/07 00:34:50;;;;;;;5.63;4.80;;;;;;;19.20;58.53;96563.38;4967161;28;20177;-70
2023/09/07 00:37:15;;;;;;;5.70;5.10;;;;;;;19.19;58.45;96565.19;4967475;28;20596;-70
2023/09/07 00:39:41;;;;;;;6.10;4.90;;;;;;;19.21;58.32;96560.59;4967468;28;20268;-70
2023/09/07 00:42:06;;;;;;;5.97;4.93;;;;;;;19.21;58.43;96565.94;4967574;28;20180;-70
2023/09/07 00:44:32;;;;;;;7.43;5.47;;;;;;;19.14;58.60;96562.03;4967056;28;20543;-70
2023/09/07 00:46:57;;;;;;;6.40;5.43;;;;;;;19.12;58.71;96561.31;4967480;28;20284;-70
2023/09/07 00:49:24;;;;;;;6.53;5.47;;;;;;;19.02;58.95;96565.63;4967546;28;20191;-70
2023/09/07 00:51:50;;;;;;;5.53;5.03;;;;;;;18.98;59.05;96562.34;4967264;28;20190;-70
2023/09/07 00:54:16;;;;;;;6.60;5.90;;;;;;;19.02;58.96;96563.81;4966812;28;20419;-70
2023/09/07 00:56:42;;;;;;;5.90;5.30;;;;;;;18.97;59.01;96560.66;4967409;28;20433;-70
2023/09/07 00:59:08;;;;;;;7.53;5.40;;;;;;;19.08;58.73;96554.50;4967233;28;20232;-70
2023/09/07 01:01:35;;;;;;;8.70;5.33;;;;;;;18.93;59.17;96561.00;4969931;28;20277;-70
2023/09/07 01:04:01;;;;;;;8.10;6.00;;;;;;;18.88;59.57;96560.50;4970267;28;20265;-69
2023/09/07 01:06:35;;;;;;;7.40;5.27;;;;;;;18.90;59.41;96555.88;4969084;28;20779;-69
2023/09/07 01:09:07;;;;;;;5.77;5.27;;;;;;;18.92;58.99;96556.63;4970433;28;20467;-69
2023/09/07 01:11:39;;;;;;;7.60;5.67;;;;;;;18.81;59.41;96554.78;4969231;28;20422;-68
2023/09/07 01:14:05;;;;;;;7.90;5.80;;;;;;;18.80;59.43;96553.94;4970417;28;20420;-70
2023/09/07 01:16:35;;;;;;;6.60;6.00;;;;;;;18.81;59.47;96555.63;4970421;28;21177;-70
2023/09/07 01:19:01;;;;;;;5.57;4.97;;;;;;;18.75;59.70;96552.53;4970308;28;20279;-70
2023/09/07 01:21:33;;;;;;;7.50;5.13;;;;;;;18.69;59.88;96548.53;4970328;28;21275;-70
2023/09/07 01:24:00;;;;;;;6.13;5.47;;;;;;;18.74;59.78;96546.38;4970176;28;20420;-70
2023/09/07 01:26:25;;;;;;;7.10;5.10;;;;;;;18.72;59.83;96544.81;4970192;28;20451;-70
2023/09/07 01:28:51;;;;;;;7.57;5.93;;;;;;;18.64;60.13;96545.38;4970158;28;20424;-70
2023/09/07 01:31:17;;;;;;;7.03;6.17;;;;;;;18.52;60.66;96547.13;4970332;28;21024;-70
2023/09/07 01:33:42;;;;;;;7.20;5.30;;;;;;;18.55;60.67;96549.56;4969773;28;20177;-70
2023/09/07 01:36:07;;;;;;;7.43;6.20;;;;;;;18.40;61.16;96550.66;4970162;28;20205;-70
2023/09/07 01:38:33;;;;;;;7.20;5.70;;;;;;;18.40;61.15;96542.69;4970542;28;20178;-69
2023/09/07 01:40:58;;;;;;;8.97;5.40;;;;;;;18.49;61.01;96551.81;4970142;28;20193;-69
2023/09/07 01:43:24;;;;;;;6.77;5.50;;;;;;;18.52;60.93;96547.13;4969931;28;20180;-70
2023/09/07 01:45:49;;;;;;;9.33;6.00;;;;;;;18.48;60.92;96545.66;4970215;28;20220;-70
2023/09/07 01:48:15;;;;;;;9.27;5.40;;;;;;;18.58;61.03;96540.50;4970224;28;20201;-68
2023/09/07 01:50:41;;;;;;;5.63;5.13;;;;;;;18.46;61.20;96544.06;4970183;28;20265;-70
2023/09/07 01:53:06;;;;;;;7.47;6.27;;;;;;;18.44;61.20;96548.66;4969399;28;20830;-70
2023/09/07 01:55:32;;;;;;;7.40;6.10;;;;;;;18.37;61.46;96542.91;4969666;28;20363;-69
2023/09/07 01:57:58;;;;;;;7.30;5.73;;;;;;;18.38;61.64;96550.78;4969574;28;20169;-70
2023/09/07 02:00:23;;;;;;;6.37;5.77;;;;;;;18.32;61.67;96548.56;4969496;28;20811;-70
2023/09/07 02:02:49;;;;;;;5.70;5.07;;;;;;;18.20;62.26;96542.34;4969335;28;20327;-69
2023/09/07 02:05:14;;;;;;;6.03;5.43;;;;;;;18.22;62.01;96544.06;4969120;28;20801;-70
2023/09/07 02:07:40;;;;;;;7.63;5.83;;;;;;;18.23;62.24;96535.09;4969514;28;20173;-69
2023/09/07 02:10:06;;;;;;;5.63;5.13;;;;;;;18.29;62.01;96538.19;4969234;28;20279;-71
2023/09/07 02:12:31;;;;;;;8.43;6.30;;;;;;;18.27;62.09;96545.41;4966974;28;20184;-70
2023/09/07 02:15:03;;;;;;;5.70;5.20;;;;;;;18.26;62.09;96535.75;4968895;28;20425;-70
2023/09/07 02:17:28;;;;;;;7.60;5.40;;;;;;;18.24;62.14;96540.31;4969268;28;20717;-70
2023/09/07 02:19:54;;;;;;;7.50;6.07;;;;;;;18.36;61.62;96542.09;4969129;28;20464;-70
2023/09/07 02:22:19;;;;;;;6.80;6.20;;;;;;;18.28;62.11;96539.13;4969265;28;20584;-69
2023/09/07 02:24:45;;;;;;;6.60;5.83;;;;;;;18.16;62.46;96534.69;4969060;28;20178;-69
2023/09/07 02:27:10;;;;;;;11.10;5.90;;;;;;;18.12;62.55;96546.53;4969087;28;20619;-68
2023/09/07 02:29:35;;;;;;;9.63;5.70;;;;;;;18.07;62.74;96545.97;4969096;28;20177;-70
2023/09/07 02:32:01;;;;;;;11.30;5.90;;;;;;;18.10;62.45;96549.28;4969256;28;20304;-70
2023/09/07 02:34:26;;;;;;;6.63;5.90;;;;;;;18.15;62.33;96543.63;4968749;28;20216;-69
2023/09/07 02:36:51;;;;;;;5.70;5.10;;;;;;;18.04;62.47;96543.56;4969572;28;20251;-70
2023/09/07 02:39:18;;;;;;;9.13;6.00;;;;;;;18.08;62.39;96545.03;4968712;28;20205;-69
2023/09/07 02:41:43;;;;;;;8.20;5.70;;;;;;;18.03;62.34;96544.53;4971785;28;20188;-70
2023/09/07 02:44:09;;;;;;;9.27;5.93;;;;;;;18.06;62.15;96545.13;4974479;28;20777;-69
2023/09/07 02:46:34;;;;;;;7.30;5.30;;;;;;;18.04;62.02;96551.53;4977841;28;20245;-69
2023/09/07 02:48:59;;;;;;;7.80;7.00;;;;;;;17.98;62.39;96545.69;4976993;28;20182;-69
2023/09/07 02:51:25;;;;;;;6.83;6.13;;;;;;;18.03;62.01;96549.84;4973155;28;20177;-69
2023/09/07 02:53:51;;;;;;;6.70;5.73;;;;;;;18.04;62.05;96546.22;4969213;28;20177;-70
2023/09/07 02:56:17;;;;;;;6.70;6.10;;;;;;;17.96;62.39;96547.59;4969044;28;20193;-70
2023/09/07 02:58:42;;;;;;;7.87;6.17;;;;;;;17.95;62.30;96548.56;4969437;28;20413;-69
2023/09/07 03:01:10;;;;;;;6.33;5.30;;;;;;;17.97;62.13;96546.63;4969549;28;20257;-70
2023/09/07 03:03:36;;;;;;;5.83;5.23;;;;;;;17.89;62.27;96545.50;4969053;28;20201;-70
2023/09/07 03:06:12;;;;;;;6.53;5.93;;;;;;;17.81;62.45;96543.41;4968498;28;20429;-70
2023/09/07 03:08:38;;;;;;;10.10;6.40;;;;;;;17.82;62.72;96537.13;4968825;28;20644;-70
2023/09/07 03:11:05;;;;;;;8.40;6.80;;;;;;;17.74;62.88;96534.09;4968443;28;20409;-70
2023/09/07 03:13:31;;;;;;;7.30;6.60;;;;;;;17.78;62.83;96540.91;4967810;28;20417;-69
2023/09/07 03:15:56;;;;;;;6.57;5.70;;;;;;;17.80;62.97;96541.66;4968498;28;21049;-71
2023/09/07 03:18:22;;;;;;;7.30;5.77;;;;;;;17.72;63.39;96546.66;4968413;28;20423;-69
2023/09/07 03:20:48;;;;;;;7.83;6.40;;;;;;;17.55;63.59;96538.06;4968627;28;20206;-70
2023/09/07 03:23:13;;;;;;;6.50;5.90;;;;;;;17.62;63.54;96545.59;4969357;28;20639;-73
2023/09/07 03:25:39;;;;;;;6.33;5.40;;;;;;;17.63;63.54;96547.31;4971109;28;20698;-71
2023/09/07 03:28:05;;;;;;;7.33;5.97;;;;;;;17.54;64.22;96554.09;4970921;28;20181;-70
2023/09/07 03:30:30;;;;;;;7.33;6.30;;;;;;;17.48;64.14;96543.88;4971100;28;20264;-71
2023/09/07 03:32:56;;;;;;;10.37;6.87;;;;;;;17.59;64.17;96554.63;4969606;28;20251;-71
2023/09/07 03:35:21;;;;;;;8.30;6.60;;;;;;;17.57;64.45;96553.88;4968862;28;20674;-70
2023/09/07 03:37:47;;;;;;;7.53;6.80;;;;;;;17.58;64.37;96552.94;4968689;28;20170;-70
2023/09/07 03:40:12;;;;;;;8.60;6.53;;;;;;;17.53;64.52;96549.75;4968085;28;20208;-71
2023/09/07 03:42:39;;;;;;;10.73;6.67;;;;;;;17.60;64.47;96547.50;4967866;28;20264;-70
2023/09/07 03:45:05;;;;;;;7.23;6.50;;;;;;;17.59;64.67;96554.63;4966464;28;20185;-70
2023/09/07 03:47:30;;;;;;;8.07;7.27;;;;;;;17.63;64.48;96555.28;4968111;28;20941;-71
2023/09/07 03:49:57;;;;;;;12.63;9.20;;;;;;;17.51;65.28;96560.47;4968287;28;20508;-71
2023/09/07 03:52:24;;;;;;;8.70;7.13;;;;;;;17.55;65.32;96556.66;4968185;28;20253;-71
2023/09/07 03:54:56;;;;;;;8.80;8.10;;;;;;;17.60;65.15;96558.09;4968480;28;20417;-69
2023/09/07 03:57:23;;;;;;;12.13;8.20;;;;;;;17.41;65.83;96554.09;4969544;28;21030;-70
2023/09/07 03:59:48;;;;;;;11.60;7.60;;;;;;;17.37;66.33;96549.13;4968767;28;20496;-71
2023/09/07 04:02:14;;;;;;;9.90;8.50;;;;;;;17.17;67.09;96553.94;4968413;28;20455;-69
2023/09/07 04:04:40;;;;;;;6.90;6.20;;;;;;;17.35;66.30;96551.84;4968401;28;20235;-70
2023/09/07 04:07:06;;;;;;;11.73;8.13;;;;;;;17.40;65.90;96547.09;4967695;28;20194;-71
2023/09/07 04:09:31;;;;;;;10.07;8.43;;;;;;;17.28;66.59;96545.28;4967623;28;21225;-71
2023/09/07 04:11:57;;;;;;;8.63;7.73;;;;;;;17.30;66.35;96546.03;4967527;28;20256;-70
2023/09/07 04:14:22;;;;;;;8.50;7.60;;;;;;;17.23;66.92;96548.25;4962272;28;20186;-70
2023/09/07 04:16:47;;;;;;;9.17;8.17;;;;;;;17.16;67.04;96552.25;4965047;28;20304;-70
2023/09/07 04:19:13;;;;;;;14.43;8.87;;;;;;;17.21;67.11;96554.59;4967758;28;20197;-71
2023/09/07 04:21:38;;;;;;;12.27;8.70;;;;;;;17.15;66.97;96553.22;4968486;28;20188;-71
2023/09/07 04:24:04;;;;;;;14.93;8.53;;;;;;;17.25;67.07;96556.94;4967367;28;20169;-70
2023/09/07 04:26:30;;;;;;;9.90;8.90;;;;;;;17.30;66.49;96560.13;4965715;28;20224;-70
2023/09/07 04:28:55;;;;;;;47.37;11.70;;;;;;;17.30;66.66;96554.81;4967923;28;20658;-71
2023/09/07 04:31:21;;;;;;;28.53;9.37;;;;;;;17.29;66.51;96550.50;4967861;28;20181;-71
2023/09/07 04:33:47;;;;;;;13.93;8.80;;;;;;;17.30;66.59;96559.28;4967418;28;20191;-71
2023/09/07 04:36:14;;;;;;;10.70;8.67;;;;;;;17.26;66.35;96555.97;4971292;28;20439;-70
2023/09/07 04:38:40;;;;;;;10.40;9.20;;;;;;;17.34;66.09;96558.13;4973264;28;20170;-71
2023/09/07 04:41:10;;;;;;;9.63;8.63;;;;;;;17.39;66.31;96555.16;4972093;28;20532;-71
2023/09/07 04:43:36;;;;;;;14.67;8.40;;;;;;;17.31;66.19;96553.00;4969244;28;20472;-71
2023/09/07 04:46:03;;;;;;;9.10;8.30;;;;;;;17.32;66.34;96549.44;4968661;28;20546;-69
2023/09/07 04:48:29;;;;;;;20.80;8.40;;;;;;;17.63;66.24;96542.84;4967371;28;20405;-69
2023/09/07 04:51:22;;;;;;;21.17;8.20;;;;;;;18.58;65.02;96546.66;4968774;28;20423;-71
2023/09/07 04:53:47;;;;;;;19.07;8.77;;;;;;;18.89;63.05;96540.91;4967752;28;20634;-68
2023/09/07 04:56:13;;;;;;;18.20;7.30;;;;;;;19.06;63.09;96537.81;4977200;28;20424;-69
2023/09/07 04:58:38;;;;;;;15.53;7.30;;;;;;;19.18;63.16;96541.34;4981640;28;20169;-70
2023/09/07 05:01:05;;;;;;;8.27;6.53;;;;;;;18.83;62.63;96542.22;4973845;28;20209;-70
2023/09/07 05:03:31;;;;;;;10.70;7.43;;;;;;;19.01;61.71;96543.47;4969572;28;20184;-69
2023/09/07 05:05:56;;;;;;;10.53;7.17;;;;;;;18.98;62.50;96537.56;4967115;28;20457;-69
2023/09/07 05:08:24;;;;;;;12.97;8.63;;;;;;;18.52;61.86;96554.22;4965125;28;20184;-68
2023/09/07 05:10:57;;;;;;;13.50;7.53;;;;;;;18.99;62.23;96556.06;4968041;28;20168;-69
2023/09/07 05:13:23;;;;;;;8.37;7.40;;;;;;;18.82;61.13;96553.81;4965701;28;20499;-68
2023/09/07 05:15:50;;;;;;;12.23;8.50;;;;;;;18.43;62.64;96549.63;4969414;28;20467;-68
2023/09/07 05:18:16;;;;;;;8.23;6.60;;;;;;;19.07;61.04;96547.50;4967242;28;20441;-69
2023/09/07 05:20:41;;;;;;;8.80;7.30;;;;;;;19.09;59.75;96550.06;4966021;28;20985;-68
2023/09/07 05:23:06;;;;;;;9.00;8.10;;;;;;;19.30;60.35;96543.09;4960168;28;20452;-69
2023/09/07 05:25:32;;;;;;;9.13;8.23;;;;;;;18.61;62.13;96554.44;4965797;28;20209;-69
2023/09/07 05:27:57;;;;;;;11.07;8.00;;;;;;;18.86;61.43;96559.75;4978825;28;20190;-69
2023/09/07 05:30:23;;;;;;;11.50;7.80;;;;;;;18.97;61.66;96559.81;4963692;28;20178;-69
2023/09/07 05:32:48;;;;;;;13.13;9.60;;;;;;;18.86;61.49;96565.09;4970086;28;20185;-70
2023/09/07 05:35:16;;;;;;;7.40;6.60;;;;;;;19.44;60.19;96555.31;4970205;28;20215;-69
2023/09/07 05:37:41;;;;;;;8.70;7.90;;;;;;;19.51;58.79;96556.53;4968697;28;20279;-71
2023/09/07 05:40:08;;;;;;;10.00;9.00;;;;;;;20.20;56.21;96555.66;4972654;28;21382;-74
2023/09/07 05:42:33;;;;;;;13.10;9.00;;;;;;;21.13;53.72;96557.81;4966141;28;20181;-74
2023/09/07 05:44:59;;;;;;;8.77;7.87;;;;;;;21.77;51.34;96556.84;4966542;28;20428;-74
2023/09/07 05:47:26;;;;;;;11.63;7.23;;;;;;;22.26;50.40;96552.59;4967119;28;20300;-71
2023/09/07 05:49:51;;;;;;;8.93;8.03;;;;;;;22.26;49.58;96563.28;4966596;28;20216;-71
2023/09/07 05:52:17;;;;;;;9.97;8.50;;;;;;;22.77;48.61;96556.94;4966887;28;20429;-71
2023/09/07 05:54:42;;;;;;;8.90;7.70;;;;;;;23.06;48.00;96555.28;4966547;28;20251;-67
2023/09/07 05:57:07;;;;;;;7.80;7.10;;;;;;;24.11;44.93;96552.53;4966604;28;20186;-69
2023/09/07 05:59:33;;;;;;;11.20;8.30;;;;;;;24.70;43.91;96564.69;4966611;28;20194;-69
2023/09/07 06:01:58;;;;;;;9.13;7.77;;;;;;;24.42;44.12;96565.66;4966871;28;20257;-69
2023/09/07 06:04:24;;;;;;;8.23;6.60;;;;;;;24.53;44.39;96562.81;4966762;28;20488;-69
2023/09/07 06:06:49;;;;;;;8.63;7.90;;;;;;;24.32;44.78;96559.53;4966519;28;20314;-69
2023/09/07 06:09:14;;;;;;;8.63;7.63;;;;;;;24.21;44.79;96556.03;4966465;28;20174;-71
2023/09/07 06:11:40;;;;;;;9.00;8.10;;;;;;;23.85;45.87;96555.88;4964971;28;20173;-70
2023/09/07 06:14:05;;;;;;;8.63;7.73;;;;;;;24.24;44.89;96563.78;4956372;28;20185;-70
2023/09/07 06:16:30;;;;;;;10.23;9.23;;;;;;;23.59;46.23;96554.78;4969939;28;20311;-70
2023/09/07 06:18:56;;;;;;;10.07;8.80;;;;;;;23.67;46.34;96554.94;4963266;28;20238;-70
2023/09/07 06:21:21;;;;;;;9.60;8.50;;;;;;;23.82;45.96;96558.03;4967534;28;20599;-71
2023/09/07 06:23:47;;;;;;;8.00;6.97;;;;;;;23.90;46.21;96552.75;4968924;28;20188;-69
2023/09/07 06:26:14;;;;;;;9.70;8.47;;;;;;;23.92;45.88;96564.19;4972690;28;20259;-69
2023/09/07 06:28:39;;;;;;;10.10;9.10;;;;;;;23.85;45.98;96565.75;4968032;28;20745;-71
2023/09/07 06:31:05;;;;;;;9.53;8.57;;;;;;;23.60;46.40;96565.38;4971370;28;20441;-69
2023/09/07 06:33:30;;;;;;;10.77;8.80;;;;;;;23.43;46.97;96568.78;4967205;28;20248;-71
2023/09/07 06:35:57;;;;;;;9.33;8.40;;;;;;;23.13;48.07;96570.66;4967457;28;20224;-71
2023/09/07 06:38:22;;;;;;;10.13;9.00;;;;;;;22.32;49.71;96568.09;4968833;28;20281;-70
2023/09/07 06:40:49;;;;;;;10.27;9.27;;;;;;;22.47;49.76;96573.06;4974907;28;20957;-72
2023/09/07 06:43:14;;;;;;;11.87;10.43;;;;;;;22.28;50.16;96576.53;4967397;28;20650;-70
2023/09/07 06:45:39;;;;;;;10.70;9.60;;;;;;;22.38;50.38;96582.75;4967427;28;20437;-71
2023/09/07 06:48:05;;;;;;;9.83;8.70;;;;;;;22.35;50.18;96583.03;4971160;28;20280;-69
2023/09/07 06:50:31;;;;;;;13.30;8.37;;;;;;;23.41;48.17;96579.66;4969434;28;20181;-69
2023/09/07 06:52:56;;;;;;;9.07;8.30;;;;;;;23.41;47.64;96576.09;4969451;28;20170;-69
2023/09/07 06:55:21;;;;;;;11.07;8.87;;;;;;;22.61;49.16;96584.22;4969945;28;20280;-70
2023/09/07 06:57:47;;;;;;;10.47;9.50;;;;;;;21.93;51.07;96589.28;4969652;28;20842;-70
2023/09/07 07:00:13;;;;;;;9.80;8.80;;;;;;;22.31;50.43;96592.28;4969506;28;20917;-69
2023/09/07 07:02:38;;;;;;;10.10;8.47;;;;;;;22.03;50.91;96583.13;4968129;28;20173;-68
2023/09/07 07:05:04;;;;;;;10.23;9.20;;;;;;;22.18;50.46;96588.00;4968943;28;20197;-68
2023/09/07 07:07:30;;;;;;;8.73;7.93;;;;;;;21.89;50.96;96587.00;4969855;28;20169;-69
2023/09/07 07:09:55;;;;;;;8.60;7.80;;;;;;;21.99;51.24;96593.22;4969735;28;20780;-68
2023/09/07 07:12:21;;;;;;;9.70;8.90;;;;;;;21.55;52.35;96598.75;4969251;28;20189;-69
2023/09/07 07:14:46;;;;;;;9.17;8.23;;;;;;;21.86;51.75;96598.81;4969349;28;20246;-68
2023/09/07 07:17:12;;;;;;;8.83;7.90;;;;;;;22.50;50.12;96597.69;4970519;28;20955;-68
2023/09/07 07:19:37;;;;;;;9.57;8.43;;;;;;;22.75;50.02;96595.50;4969294;28;20597;-69
2023/09/07 07:22:03;;;;;;;10.07;9.03;;;;;;;22.76;49.32;96599.88;4961429;28;20194;-68
2023/09/07 07:24:28;;;;;;;9.70;8.80;;;;;;;22.35;50.52;96599.91;4984146;28;20177;-68
2023/09/07 07:26:54;;;;;;;13.37;9.17;;;;;;;22.34;50.41;96598.19;4973729;28;20217;-70
2023/09/07 07:29:19;;;;;;;15.80;9.97;;;;;;;22.67;49.94;96598.00;4977169;28;20192;-69
2023/09/07 07:31:45;;;;;;;11.97;9.97;;;;;;;22.19;50.87;96595.03;4980306;28;20325;-69
2023/09/07 07:34:10;;;;;;;11.30;9.33;;;;;;;22.15;51.24;96606.94;4986702;28;20342;-70
2023/09/07 07:36:36;;;;;;;10.47;9.47;;;;;;;22.22;51.55;96598.44;4980931;28;20322;-70
2023/09/07 07:39:03;;;;;;;10.60;9.60;;;;;;;22.37;50.83;96605.09;4993496;28;20228;-70
2023/09/07 07:41:28;;;;;;;9.87;8.07;;;;;;;22.29;51.15;96610.28;4977836;28;20182;-70
2023/09/07 07:43:54;;;;;;;9.53;8.63;;;;;;;22.58;50.62;96600.53;4974395;28;20429;-70
2023/09/07 07:46:19;;;;;;;10.17;9.17;;;;;;;22.72;50.54;96601.13;4972986;28;20269;-70
2023/09/07 07:48:45;;;;;;;9.40;8.50;;;;;;;22.78;50.55;96593.41;4973184;28;20193;-70
2023/09/07 07:51:10;;;;;;;9.70;8.80;;;;;;;23.28;49.30;96586.28;4978168;28;20442;-70
2023/09/07 07:53:35;;;;;;;12.10;9.30;;;;;;;22.80;50.06;96583.41;4976667;28;20594;-70
2023/09/07 07:56:02;;;;;;;11.77;9.73;;;;;;;22.91;50.37;96584.25;4975918;28;20236;-69
2023/09/07 07:58:28;;;;;;;13.87;10.53;;;;;;;22.74;50.59;96591.97;4973958;28;20268;-70
2023/09/07 08:00:57;;;;;;;11.90;9.70;;;;;;;22.45;51.29;96588.41;4975615;28;20492;-71
2023/09/07 08:03:23;;;;;;;11.70;10.00;;;;;;;23.00;50.45;96589.63;4975910;28;20618;-70
2023/09/07 08:05:48;;;;;;;11.37;10.30;;;;;;;22.91;50.52;96584.25;4975766;28;20444;-70
2023/09/07 08:08:13;;;;;;;12.10;9.60;;;;;;;22.65;51.25;96590.13;4974895;28;20174;-72
2023/09/07 08:10:41;;;;;;;11.83;10.57;;;;;;;22.50;52.01;96591.50;4977525;28;20162;-71
2023/09/07 08:13:07;;;;;;;10.07;9.10;;;;;;;22.38;51.86;96583.59;4977961;28;20260;-71
2023/09/07 08:15:33;;;;;;;12.03;10.47;;;;;;;22.71;51.32;96591.41;4975708;28;21119;-70
2023/09/07 08:17:58;;;;;;;11.63;10.53;;;;;;;23.57;49.48;96584.41;4971877;28;20336;-71
2023/09/07 08:20:25;;;;;;;11.37;9.60;;;;;;;23.75;49.01;96581.03;4974186;28;20460;-71
2023/09/07 08:22:52;;;;;;;10.13;9.10;;;;;;;23.70;49.63;96583.28;4974570;28;20188;-72
2023/09/07 08:25:18;;;;;;;11.30;9.67;;;;;;;24.09;48.66;96581.34;4974224;28;20555;-72
2023/09/07 08:27:44;;;;;;;18.03;10.70;;;;;;;23.42;49.68;96583.16;4973165;28;20504;-70
2023/09/07 08:30:18;;;;;;;10.70;9.60;;;;;;;22.71;52.07;96588.75;4972231;28;20185;-70
2023/09/07 08:32:45;;;;;;;11.37;9.77;;;;;;;23.36;50.48;96586.41;4972920;28;20540;-73
2023/09/07 08:35:16;;;;;;;11.50;10.33;;;;;;;22.53;52.54;96584.03;4971962;28;20464;-71
2023/09/07 08:37:42;;;;;;;13.07;8.27;;;;;;;23.65;49.81;96576.50;4972838;28;20429;-71
2023/09/07 08:40:08;;;;;;;10.70;9.60;;;;;;;23.88;49.07;96578.88;4972131;28;20534;-71
2023/09/07 08:42:37;;;;;;;15.67;10.67;;;;;;;24.39;48.13;96582.06;4972628;28;20182;-71
2023/09/07 08:45:06;;;;;;;18.73;10.00;;;;;;;24.09;48.62;96574.16;4972029;28;20424;-72
2023/09/07 08:47:34;;;;;;;10.80;9.90;;;;;;;23.90;49.35;96576.03;4972246;28;20479;-73
2023/09/07 08:50:00;;;;;;;11.93;10.80;;;;;;;24.01;48.75;96573.19;4970499;28;20512;-72
2023/09/07 08:52:25;;;;;;;10.43;9.33;;;;;;;24.02;48.69;96570.34;4971942;28;20516;-71
2023/09/07 08:54:52;;;;;;;9.23;7.77;;;;;;;24.26;48.61;96575.22;4971240;28;20463;-70
2023/09/07 08:57:20;;;;;;;11.43;9.53;;;;;;;24.18;48.96;96575.09;4971917;28;20199;-70
2023/09/07 08:59:45;;;;;;;11.67;9.40;;;;;;;23.62;50.42;96573.25;4971468;28;20456;-71
2023/09/07 09:02:11;;;;;;;10.60;9.60;;;;;;;23.10;51.61;96564.72;4970689;28;20514;-69
2023/09/07 09:04:36;;;;;;;10.70;9.17;;;;;;;23.80;50.08;96571.56;4973134;28;20177;-72
2023/09/07 09:07:03;;;;;;;12.43;8.97;;;;;;;23.92;49.53;96572.22;4972959;28;20194;-70
2023/09/07 09:09:29;;;;;;;10.30;9.37;;;;;;;24.33;49.10;96572.78;4974875;28;20631;-70
2023/09/07 09:12:05;;;;;;;10.40;9.40;;;;;;;23.82;50.06;96569.59;4974494;28;20420;-70
2023/09/07 09:14:31;;;;;;;10.57;9.67;;;;;;;24.03;49.87;96569.38;4974139;28;20519;-70
2023/09/07 09:16:56;;;;;;;12.23;10.80;;;;;;;23.84;49.77;96566.75;4966311;28;20523;-70
2023/09/07 09:19:33;;;;;;;10.57;9.57;;;;;;;23.62;50.84;96574.13;4972141;28;20352;-70
2023/09/07 09:21:59;;;;;;;13.03;9.80;;;;;;;23.66;50.89;96564.78;4972510;28;20183;-70
2023/09/07 09:24:25;;;;;;;11.67;10.67;;;;;;;23.73;50.81;96565.06;4971457;28;20425;-69
2023/09/07 09:26:50;;;;;;;11.30;10.30;;;;;;;23.86;50.20;96570.16;4971434;28;20798;-70
2023/09/07 09:29:16;;;;;;;11.33;10.07;;;;;;;23.83;50.50;96565.91;4970677;28;20180;-70
2023/09/07 09:31:42;;;;;;;11.17;10.00;;;;;;;23.96;50.50;96554.88;4970663;28;20190;-69
2023/09/07 09:34:08;;;;;;;10.73;9.00;;;;;;;24.14;49.63;96564.81;4971235;28;20205;-70
2023/09/07 09:36:35;;;;;;;10.30;9.30;;;;;;;23.88;50.76;96555.59;4971420;28;20808;-73
2023/09/07 09:39:00;;;;;;;10.27;8.27;;;;;;;24.42;49.61;96553.09;4972298;28;20656;-70
2023/09/07 09:41:27;;;;;;;11.80;10.47;;;;;;;24.56;49.09;96556.31;4971385;28;20444;-72
2023/09/07 09:43:53;;;;;;;12.30;11.10;;;;;;;23.80;50.36;96560.84;4971038;28;20733;-71
2023/09/07 09:46:19;;;;;;;11.13;9.90;;;;;;;23.63;51.41;96556.22;4970403;28;20460;-72
2023/09/07 09:48:45;;;;;;;10.87;9.80;;;;;;;24.24;50.36;96553.06;4971316;28;20570;-72
2023/09/07 09:51:13;;;;;;;10.40;9.23;;;;;;;24.26;50.07;96558.25;4971602;28;20637;-70
2023/09/07 09:53:39;;;;;;;9.93;9.03;;;;;;;24.29;50.26;96545.41;4970396;28;20196;-70
2023/09/07 09:56:04;;;;;;;11.20;9.50;;;;;;;23.90;50.88;96557.28;4978806;28;20440;-70
2023/09/07 09:58:30;;;;;;;10.43;9.63;;;;;;;23.76;51.50;96540.66;4979803;28;20207;-71
2023/09/07 10:01:00;;;;;;;10.87;9.77;;;;;;;23.88;50.88;96539.53;4972449;28;20686;-72
2023/09/07 10:03:28;;;;;;;10.40;8.47;;;;;;;23.97;50.58;96544.97;4971050;28;20181;-72
2023/09/07 10:05:54;;;;;;;9.87;8.77;;;;;;;24.04;50.26;96543.41;4968939;28;20555;-72
2023/09/07 10:08:22;;;;;;;11.27;10.37;;;;;;;23.70;51.29;96540.41;4970622;28;20940;-72
2023/09/07 10:10:49;;;;;;;11.43;10.23;;;;;;;23.82;50.67;96542.78;4962282;28;20165;-71
2023/09/07 10:13:16;;;;;;;9.27;8.37;;;;;;;24.40;50.21;96530.97;4968854;28;20491;-72
2023/09/07 10:15:42;;;;;;;9.67;8.77;;;;;;;24.67;49.37;96526.59;4970542;28;20484;-71
2023/09/07 10:18:11;;;;;;;10.07;9.20;;;;;;;24.75;48.81;96539.22;4970024;28;20488;-71
2023/09/07 10:21:06;;;;;;;9.50;8.60;;;;;;;24.35;49.87;96532.38;4966900;28;20202;-70
2023/09/07 10:23:45;;;;;;;9.00;8.20;;;;;;;24.88;48.83;96532.50;4969450;28;20429;-70
2023/09/07 10:26:23;;;;;;;8.80;7.90;;;;;;;25.11;48.36;96530.19;4970366;28;21006;-68
2023/09/07 10:29:00;;;;;;;8.40;7.60;;;;;;;25.77;46.84;96525.31;4970566;28;20427;-69
2023/09/07 10:31:26;;;;;;;10.70;9.17;;;;;;;25.89;46.99;96526.78;4970623;28;20424;-69
2023/09/07 10:33:52;;;;;;;10.07;9.07;;;;;;;25.69;47.19;96534.19;4967976;28;20488;-69
2023/09/07 10:36:22;;;;;;;9.60;8.80;;;;;;;25.42;47.55;96527.13;4970166;28;20834;-69
2023/09/07 10:38:47;;;;;;;12.80;9.60;;;;;;;25.05;48.40;96530.81;4970138;28;20173;-69
2023/09/07 10:41:13;;;;;;;9.57;8.60;;;;;;;25.34;48.21;96533.25;4970141;28;20467;-69
2023/09/07 10:43:54;;;;;;;9.87;9.07;;;;;;;24.92;48.89;96536.56;4970199;28;20902;-68
2023/09/07 10:46:23;;;;;;;10.60;9.67;;;;;;;25.02;48.71;96533.81;4969894;28;20256;-69
2023/09/07 10:48:51;;;;;;;10.50;9.40;;;;;;;25.43;48.13;96523.41;4969825;28;20417;-69
2023/09/07 10:51:17;;;;;;;10.67;9.63;;;;;;;25.34;48.12;96524.34;4970175;28;20435;-68
2023/09/07 10:53:42;;;;;;;9.77;8.97;;;;;;;25.45;48.32;96518.75;4969798;28;20417;-69
2023/09/07 10:56:08;;;;;;;10.10;9.27;;;;;;;25.90;47.89;96514.19;4969669;28;20248;-69
2023/09/07 10:58:40;;;;;;;9.70;8.90;;;;;;;26.00;47.48;96516.75;4969999;28;20177;-69
2023/09/07 11:01:06;;;;;;;10.47;9.47;;;;;;;25.75;47.67;96522.81;4969854;28;20464;-71
2023/09/07 11:03:31;;;;;;;10.60;9.70;;;;;;;25.73;47.90;96514.06;4968640;28;20417;-70
2023/09/07 11:06:03;;;;;;;11.43;9.90;;;;;;;26.24;46.82;96511.47;4968912;28;20197;-69
2023/09/07 11:08:29;;;;;;;10.10;9.03;;;;;;;26.08;47.00;96506.88;4968541;28;20682;-68
2023/09/07 11:10:54;;;;;;;11.30;10.17;;;;;;;25.28;48.78;96522.31;4968822;28;20467;-70
2023/09/07 11:13:21;;;;;;;17.70;10.37;;;;;;;25.17;49.05;96509.09;4968617;28;21215;-69
2023/09/07 11:15:46;;;;;;;12.20;8.97;;;;;;;25.71;48.64;96499.09;4968680;28;20213;-69
2023/09/07 11:18:13;;;;;;;9.17;8.10;;;;;;;26.02;47.94;96507.50;4968905;28;20424;-69
2023/09/07 11:20:39;;;;;;;9.07;8.03;;;;;;;25.61;48.25;96503.72;4967201;28;20296;-69
2023/09/07 11:23:05;;;;;;;14.93;10.00;;;;;;;25.69;48.29;96504.59;4968285;28;20420;-68
2023/09/07 11:25:37;;;;;;;13.57;9.90;;;;;;;25.48;48.87;96498.78;4968866;28;20205;-69